sensor_id;sensor_type;location;lat;lon;timestamp;temperature;humidity
27667;DHT22;15074;50.940;5.282;2022-08-03T00:01:52;19.80;99.90
27667;DHT22;15074;50.940;5.282;2022-08-03T00:04:17;19.90;99.90
27667;DHT22;15074;50.940;5.282;2022-08-03T00:06:43;19.90;99.90
27667;DHT22;15074;50.940;5.282;2022-08-03T00:09:09;20.00;99.90
27667;DHT22;15074;50.940;5.282;2022-08-03T00:11:35;20.10;99.90
27667;DHT22;15074;50.940;5.282;2022-08-03T00:14:01;20.00;99.90
27667;DHT22;15074;50.940;5.282;2022-08-03T00:16:27;20.00;99.90
27667;DHT22;15074;50.940;5.282;2022-08-03T00:18:53;20.00;99.90
27667;DHT22;15074;50.940;5.282;2022-08-03T00:21:18;19.90;99.90
27667;DHT22;15074;50.940;5.282;2022-08-03T00:23:44;19.60;99.90
27667;DHT22;15074;50.940;5.282;2022-08-03T00:26:09;19.50;99.90
27667;DHT22;15074;50.940;5.282;2022-08-03T00:28:35;19.40;99.90
27667;DHT22;15074;50.940;5.282;2022-08-03T00:31:01;19.50;99.90
27667;DHT22;15074;50.940;5.282;2022-08-03T00:33:26;19.40;99.90
27667;DHT22;15074;50.940;5.282;2022-08-03T00:35:52;19.40;99.90
27667;DHT22;15074;50.940;5.282;2022-08-03T00:38:18;19.50;99.90
27667;DHT22;15074;50.940;5.282;2022-08-03T00:40:44;19.30;99.90
27667;DHT22;15074;50.940;5.282;2022-08-03T00:43:10;19.40;99.90
27667;DHT22;15074;50.940;5.282;2022-08-03T00:45:38;19.50;99.90
27667;DHT22;15074;50.940;5.282;2022-08-03T00:48:04;19.60;99.90
27667;DHT22;15074;50.940;5.282;2022-08-03T00:50:36;19.50;99.90
27667;DHT22;15074;50.940;5.282;2022-08-03T00:53:08;19.60;99.90
27667;DHT22;15074;50.940;5.282;2022-08-03T00:55:35;19.50;99.90
27667;DHT22;15074;50.940;5.282;2022-08-03T00:58:02;19.50;99.90
27667;DHT22;15074;50.940;5.282;2022-08-03T01:00:31;19.50;99.90
27667;DHT22;15074;50.940;5.282;2022-08-03T01:02:57;19.40;99.90
27667;DHT22;15074;50.940;5.282;2022-08-03T01:05:23;19.20;99.90
27667;DHT22;15074;50.940;5.282;2022-08-03T01:10:36;19.20;99.90
27667;DHT22;15074;50.940;5.282;2022-08-03T01:16:17;19.20;99.90
27667;DHT22;15074;50.940;5.282;2022-08-03T01:18:50;19.10;99.90
27667;DHT22;15074;50.940;5.282;2022-08-03T01:21:28;19.20;99.90
27667;DHT22;15074;50.940;5.282;2022-08-03T01:32:14;19.40;99.90
27667;DHT22;15074;50.940;5.282;2022-08-03T01:34:46;19.40;99.90
27667;DHT22;15074;50.940;5.282;2022-08-03T01:37:15;19.40;99.90
27667;DHT22;15074;50.940;5.282;2022-08-03T01:39:46;19.20;99.90
27667;DHT22;15074;50.940;5.282;2022-08-03T01:42:13;19.10;99.90
27667;DHT22;15074;50.940;5.282;2022-08-03T01:44:43;19.00;99.90
27667;DHT22;15074;50.940;5.282;2022-08-03T01:47:10;18.80;99.90
27667;DHT22;15074;50.940;5.282;2022-08-03T01:49:39;18.80;99.90
27667;DHT22;15074;50.940;5.282;2022-08-03T01:52:08;18.60;99.90
27667;DHT22;15074;50.940;5.282;2022-08-03T01:54:36;18.40;99.90
27667;DHT22;15074;50.940;5.282;2022-08-03T01:57:05;18.20;99.90
27667;DHT22;15074;50.940;5.282;2022-08-03T01:59:33;18.10;99.90
27667;DHT22;15074;50.940;5.282;2022-08-03T02:01:59;18.00;99.90
27667;DHT22;15074;50.940;5.282;2022-08-03T02:04:26;18.10;99.90
27667;DHT22;15074;50.940;5.282;2022-08-03T02:06:53;18.00;99.90
27667;DHT22;15074;50.940;5.282;2022-08-03T02:09:20;18.00;99.90
27667;DHT22;15074;50.940;5.282;2022-08-03T02:11:47;18.10;99.90
27667;DHT22;15074;50.940;5.282;2022-08-03T02:14:13;18.00;99.90
27667;DHT22;15074;50.940;5.282;2022-08-03T02:16:42;18.00;99.90
27667;DHT22;15074;50.940;5.282;2022-08-03T02:19:10;18.20;99.90
27667;DHT22;15074;50.940;5.282;2022-08-03T02:21:37;18.20;99.90
27667;DHT22;15074;50.940;5.282;2022-08-03T02:24:03;18.30;99.90
27667;DHT22;15074;50.940;5.282;2022-08-03T02:26:30;18.20;99.90
27667;DHT22;15074;50.940;5.282;2022-08-03T02:29:00;18.30;99.90
27667;DHT22;15074;50.940;5.282;2022-08-03T02:31:29;18.30;99.90
27667;DHT22;15074;50.940;5.282;2022-08-03T02:34:01;18.20;99.90
27667;DHT22;15074;50.940;5.282;2022-08-03T02:36:29;18.10;99.90
27667;DHT22;15074;50.940;5.282;2022-08-03T02:38:58;18.10;99.90
27667;DHT22;15074;50.940;5.282;2022-08-03T02:41:32;18.20;99.90
27667;DHT22;15074;50.940;5.282;2022-08-03T02:44:02;18.30;99.90
27667;DHT22;15074;50.940;5.282;2022-08-03T02:46:31;18.30;99.90
27667;DHT22;15074;50.940;5.282;2022-08-03T02:48:59;18.30;99.90
27667;DHT22;15074;50.940;5.282;2022-08-03T02:51:27;18.30;99.90
27667;DHT22;15074;50.940;5.282;2022-08-03T02:53:54;18.30;99.90
27667;DHT22;15074;50.940;5.282;2022-08-03T02:56:21;18.30;99.90
27667;DHT22;15074;50.940;5.282;2022-08-03T02:58:48;18.30;99.90
27667;DHT22;15074;50.940;5.282;2022-08-03T03:01:15;18.20;99.90
27667;DHT22;15074;50.940;5.282;2022-08-03T03:03:41;18.20;99.90
27667;DHT22;15074;50.940;5.282;2022-08-03T03:06:08;18.20;99.90
27667;DHT22;15074;50.940;5.282;2022-08-03T03:08:36;18.20;99.90
27667;DHT22;15074;50.940;5.282;2022-08-03T03:11:01;18.20;99.90
27667;DHT22;15074;50.940;5.282;2022-08-03T03:13:29;18.10;99.90
27667;DHT22;15074;50.940;5.282;2022-08-03T03:15:57;18.00;99.90
27667;DHT22;15074;50.940;5.282;2022-08-03T03:18:24;17.90;99.90
27667;DHT22;15074;50.940;5.282;2022-08-03T03:20:52;17.90;99.90
27667;DHT22;15074;50.940;5.282;2022-08-03T03:23:20;17.90;99.90
27667;DHT22;15074;50.940;5.282;2022-08-03T03:25:46;17.90;99.90
27667;DHT22;15074;50.940;5.282;2022-08-03T03:28:12;17.90;99.90
27667;DHT22;15074;50.940;5.282;2022-08-03T03:30:38;17.90;99.90
27667;DHT22;15074;50.940;5.282;2022-08-03T03:33:04;18.00;99.90
27667;DHT22;15074;50.940;5.282;2022-08-03T03:35:30;18.00;99.90
27667;DHT22;15074;50.940;5.282;2022-08-03T03:37:56;18.00;99.90
27667;DHT22;15074;50.940;5.282;2022-08-03T03:40:22;18.10;99.90
27667;DHT22;15074;50.940;5.282;2022-08-03T03:42:49;18.00;99.90
27667;DHT22;15074;50.940;5.282;2022-08-03T03:45:15;18.00;99.90
27667;DHT22;15074;50.940;5.282;2022-08-03T03:47:41;17.90;99.90
27667;DHT22;15074;50.940;5.282;2022-08-03T03:50:07;17.90;99.90
27667;DHT22;15074;50.940;5.282;2022-08-03T03:52:35;17.80;99.90
27667;DHT22;15074;50.940;5.282;2022-08-03T03:55:01;17.70;99.90
27667;DHT22;15074;50.940;5.282;2022-08-03T03:57:27;17.70;99.90
27667;DHT22;15074;50.940;5.282;2022-08-03T03:59:53;17.70;99.90
27667;DHT22;15074;50.940;5.282;2022-08-03T04:02:19;17.70;99.90
27667;DHT22;15074;50.940;5.282;2022-08-03T04:04:44;17.60;99.90
27667;DHT22;15074;50.940;5.282;2022-08-03T04:07:35;17.60;99.90
27667;DHT22;15074;50.940;5.282;2022-08-03T04:10:26;17.60;99.90
27667;DHT22;15074;50.940;5.282;2022-08-03T04:13:13;17.70;99.90
27667;DHT22;15074;50.940;5.282;2022-08-03T04:15:39;17.70;99.90
27667;DHT22;15074;50.940;5.282;2022-08-03T04:18:08;17.70;99.90
27667;DHT22;15074;50.940;5.282;2022-08-03T04:20:37;17.80;99.90
27667;DHT22;15074;50.940;5.282;2022-08-03T04:23:04;17.80;99.90
27667;DHT22;15074;50.940;5.282;2022-08-03T04:25:32;17.80;99.90
27667;DHT22;15074;50.940;5.282;2022-08-03T04:28:00;17.90;99.90
27667;DHT22;15074;50.940;5.282;2022-08-03T04:30:27;18.00;99.90
27667;DHT22;15074;50.940;5.282;2022-08-03T04:32:55;17.90;99.90
27667;DHT22;15074;50.940;5.282;2022-08-03T04:35:23;17.80;99.90
27667;DHT22;15074;50.940;5.282;2022-08-03T04:37:51;17.90;99.90
27667;DHT22;15074;50.940;5.282;2022-08-03T04:40:21;18.00;99.90
27667;DHT22;15074;50.940;5.282;2022-08-03T04:42:48;18.20;99.90
27667;DHT22;15074;50.940;5.282;2022-08-03T04:45:15;18.40;99.90
27667;DHT22;15074;50.940;5.282;2022-08-03T04:47:42;18.60;99.90
27667;DHT22;15074;50.940;5.282;2022-08-03T04:50:09;18.80;99.90
27667;DHT22;15074;50.940;5.282;2022-08-03T04:52:35;18.90;99.90
27667;DHT22;15074;50.940;5.282;2022-08-03T04:55:00;19.20;99.90
27667;DHT22;15074;50.940;5.282;2022-08-03T04:57:26;19.20;99.90
27667;DHT22;15074;50.940;5.282;2022-08-03T04:59:52;19.10;99.90
27667;DHT22;15074;50.940;5.282;2022-08-03T05:02:19;19.00;99.90
27667;DHT22;15074;50.940;5.282;2022-08-03T05:04:45;18.90;99.90
27667;DHT22;15074;50.940;5.282;2022-08-03T05:07:12;18.90;99.90
27667;DHT22;15074;50.940;5.282;2022-08-03T05:09:38;18.90;99.90
27667;DHT22;15074;50.940;5.282;2022-08-03T05:12:05;18.90;99.90
27667;DHT22;15074;50.940;5.282;2022-08-03T05:14:32;18.80;99.90
27667;DHT22;15074;50.940;5.282;2022-08-03T05:16:57;18.90;99.90
27667;DHT22;15074;50.940;5.282;2022-08-03T05:19:23;18.80;99.90
27667;DHT22;15074;50.940;5.282;2022-08-03T05:21:49;18.90;99.90
27667;DHT22;15074;50.940;5.282;2022-08-03T05:24:15;19.60;99.90
27667;DHT22;15074;50.940;5.282;2022-08-03T05:26:40;20.90;99.90
27667;DHT22;15074;50.940;5.282;2022-08-03T05:29:06;22.20;99.90
27667;DHT22;15074;50.940;5.282;2022-08-03T05:31:32;22.90;99.90
27667;DHT22;15074;50.940;5.282;2022-08-03T05:33:57;23.50;99.90
27667;DHT22;15074;50.940;5.282;2022-08-03T05:36:23;23.80;99.90
27667;DHT22;15074;50.940;5.282;2022-08-03T05:38:48;24.90;99.90
27667;DHT22;15074;50.940;5.282;2022-08-03T05:41:14;25.80;99.90
27667;DHT22;15074;50.940;5.282;2022-08-03T05:43:40;26.80;99.90
27667;DHT22;15074;50.940;5.282;2022-08-03T05:46:05;26.80;99.90
27667;DHT22;15074;50.940;5.282;2022-08-03T05:48:31;26.50;99.90
27667;DHT22;15074;50.940;5.282;2022-08-03T05:50:56;26.30;99.90
27667;DHT22;15074;50.940;5.282;2022-08-03T05:53:22;27.10;99.90
27667;DHT22;15074;50.940;5.282;2022-08-03T05:55:48;27.70;99.90
27667;DHT22;15074;50.940;5.282;2022-08-03T05:58:13;27.90;99.90
27667;DHT22;15074;50.940;5.282;2022-08-03T06:00:39;27.90;99.90
27667;DHT22;15074;50.940;5.282;2022-08-03T06:03:04;28.80;99.90
27667;DHT22;15074;50.940;5.282;2022-08-03T06:05:30;28.90;99.90
27667;DHT22;15074;50.940;5.282;2022-08-03T06:07:56;29.30;99.90
27667;DHT22;15074;50.940;5.282;2022-08-03T06:10:22;29.50;99.90
27667;DHT22;15074;50.940;5.282;2022-08-03T06:12:48;29.10;99.90
27667;DHT22;15074;50.940;5.282;2022-08-03T06:15:15;29.00;99.90
27667;DHT22;15074;50.940;5.282;2022-08-03T06:17:45;29.00;99.90
27667;DHT22;15074;50.940;5.282;2022-08-03T06:20:11;29.00;99.90
27667;DHT22;15074;50.940;5.282;2022-08-03T06:22:37;30.10;99.90
27667;DHT22;15074;50.940;5.282;2022-08-03T06:25:03;30.00;99.90
27667;DHT22;15074;50.940;5.282;2022-08-03T06:27:28;28.70;99.90
27667;DHT22;15074;50.940;5.282;2022-08-03T06:29:54;28.70;99.90
27667;DHT22;15074;50.940;5.282;2022-08-03T06:32:19;28.60;99.90
27667;DHT22;15074;50.940;5.282;2022-08-03T06:34:47;29.10;99.90
27667;DHT22;15074;50.940;5.282;2022-08-03T06:37:13;30.20;99.90
27667;DHT22;15074;50.940;5.282;2022-08-03T06:39:38;30.40;99.90
27667;DHT22;15074;50.940;5.282;2022-08-03T06:42:04;30.50;99.90
27667;DHT22;15074;50.940;5.282;2022-08-03T06:44:30;31.60;99.90
27667;DHT22;15074;50.940;5.282;2022-08-03T06:46:56;32.00;99.90
27667;DHT22;15074;50.940;5.282;2022-08-03T06:49:21;32.80;99.90
27667;DHT22;15074;50.940;5.282;2022-08-03T06:51:47;32.60;99.90
27667;DHT22;15074;50.940;5.282;2022-08-03T06:54:15;32.00;99.90
27667;DHT22;15074;50.940;5.282;2022-08-03T06:56:40;32.70;99.90
27667;DHT22;15074;50.940;5.282;2022-08-03T06:59:06;31.80;99.90
27667;DHT22;15074;50.940;5.282;2022-08-03T07:01:32;31.80;99.90
27667;DHT22;15074;50.940;5.282;2022-08-03T07:03:57;32.10;99.90
27667;DHT22;15074;50.940;5.282;2022-08-03T07:06:24;33.00;99.90
27667;DHT22;15074;50.940;5.282;2022-08-03T07:08:50;33.80;99.30
27667;DHT22;15074;50.940;5.282;2022-08-03T07:11:16;34.60;97.70
27667;DHT22;15074;50.940;5.282;2022-08-03T07:13:41;33.60;98.60
27667;DHT22;15074;50.940;5.282;2022-08-03T07:16:07;33.50;99.00
27667;DHT22;15074;50.940;5.282;2022-08-03T07:18:37;33.90;98.30
27667;DHT22;15074;50.940;5.282;2022-08-03T07:21:03;34.90;97.40
27667;DHT22;15074;50.940;5.282;2022-08-03T07:23:28;36.10;96.10
27667;DHT22;15074;50.940;5.282;2022-08-03T07:25:54;35.40;94.90
27667;DHT22;15074;50.940;5.282;2022-08-03T07:28:20;35.10;94.70
27667;DHT22;15074;50.940;5.282;2022-08-03T07:30:46;35.20;94.90
27667;DHT22;15074;50.940;5.282;2022-08-03T07:33:11;35.30;94.00
27667;DHT22;15074;50.940;5.282;2022-08-03T07:35:37;35.00;93.70
27667;DHT22;15074;50.940;5.282;2022-08-03T07:38:03;35.00;93.50
27667;DHT22;15074;50.940;5.282;2022-08-03T07:40:29;35.20;92.80
27667;DHT22;15074;50.940;5.282;2022-08-03T07:42:55;34.80;93.10
27667;DHT22;15074;50.940;5.282;2022-08-03T07:45:20;35.70;92.20
27667;DHT22;15074;50.940;5.282;2022-08-03T07:47:47;36.40;91.50
27667;DHT22;15074;50.940;5.282;2022-08-03T07:50:13;36.80;90.70
27667;DHT22;15074;50.940;5.282;2022-08-03T07:52:38;35.60;90.70
27667;DHT22;15074;50.940;5.282;2022-08-03T07:55:26;35.50;90.60
27667;DHT22;15074;50.940;5.282;2022-08-03T07:58:13;35.60;90.30
27667;DHT22;15074;50.940;5.282;2022-08-03T08:00:42;35.40;90.40
27667;DHT22;15074;50.940;5.282;2022-08-03T08:03:09;35.60;90.20
27667;DHT22;15074;50.940;5.282;2022-08-03T08:05:35;35.60;90.00
27667;DHT22;15074;50.940;5.282;2022-08-03T08:08:01;35.60;90.30
27667;DHT22;15074;50.940;5.282;2022-08-03T08:10:27;35.60;90.00
27667;DHT22;15074;50.940;5.282;2022-08-03T08:12:53;36.10;90.00
27667;DHT22;15074;50.940;5.282;2022-08-03T08:15:19;36.60;87.50
27667;DHT22;15074;50.940;5.282;2022-08-03T08:17:59;37.00;86.80
27667;DHT22;15074;50.940;5.282;2022-08-03T08:20:33;37.00;85.60
27667;DHT22;15074;50.940;5.282;2022-08-03T08:23:00;36.80;85.80
27667;DHT22;15074;50.940;5.282;2022-08-03T08:25:27;37.50;84.20
27667;DHT22;15074;50.940;5.282;2022-08-03T08:27:53;37.40;83.80
27667;DHT22;15074;50.940;5.282;2022-08-03T08:30:20;37.30;82.70
27667;DHT22;15074;50.940;5.282;2022-08-03T08:32:46;38.20;82.60
27667;DHT22;15074;50.940;5.282;2022-08-03T08:35:12;39.00;80.70
27667;DHT22;15074;50.940;5.282;2022-08-03T08:37:38;37.80;80.50
27667;DHT22;15074;50.940;5.282;2022-08-03T08:40:05;37.90;81.50
27667;DHT22;15074;50.940;5.282;2022-08-03T08:42:31;37.30;81.50
27667;DHT22;15074;50.940;5.282;2022-08-03T08:44:59;37.20;81.00
27667;DHT22;15074;50.940;5.282;2022-08-03T08:47:30;36.70;81.40
27667;DHT22;15074;50.940;5.282;2022-08-03T08:49:59;36.20;83.60
27667;DHT22;15074;50.940;5.282;2022-08-03T08:52:29;36.30;83.80
27667;DHT22;15074;50.940;5.282;2022-08-03T08:55:00;36.00;83.40
27667;DHT22;15074;50.940;5.282;2022-08-03T08:57:41;36.10;84.70
27667;DHT22;15074;50.940;5.282;2022-08-03T09:00:10;37.20;82.40
27667;DHT22;15074;50.940;5.282;2022-08-03T09:02:39;37.50;80.20
27667;DHT22;15074;50.940;5.282;2022-08-03T09:05:12;36.10;82.00
27667;DHT22;15074;50.940;5.282;2022-08-03T09:07:39;36.10;81.10
27667;DHT22;15074;50.940;5.282;2022-08-03T09:10:07;36.30;82.00
27667;DHT22;15074;50.940;5.282;2022-08-03T09:12:44;36.90;81.60
27667;DHT22;15074;50.940;5.282;2022-08-03T09:15:23;37.00;81.50
27667;DHT22;15074;50.940;5.282;2022-08-03T09:17:50;37.80;79.70
27667;DHT22;15074;50.940;5.282;2022-08-03T09:20:17;38.00;79.10
27667;DHT22;15074;50.940;5.282;2022-08-03T09:23:05;37.30;79.30
27667;DHT22;15074;50.940;5.282;2022-08-03T09:25:35;36.80;79.40
27667;DHT22;15074;50.940;5.282;2022-08-03T09:28:12;36.40;80.40
27667;DHT22;15074;50.940;5.282;2022-08-03T09:30:40;36.20;80.90
27667;DHT22;15074;50.940;5.282;2022-08-03T09:33:11;36.40;80.50
27667;DHT22;15074;50.940;5.282;2022-08-03T09:35:44;36.60;79.90
27667;DHT22;15074;50.940;5.282;2022-08-03T09:38:21;37.00;78.60
27667;DHT22;15074;50.940;5.282;2022-08-03T09:40:52;37.30;78.30
27667;DHT22;15074;50.940;5.282;2022-08-03T09:43:18;37.50;77.40
27667;DHT22;15074;50.940;5.282;2022-08-03T09:45:45;37.70;77.30
27667;DHT22;15074;50.940;5.282;2022-08-03T09:48:31;38.00;76.70
27667;DHT22;15074;50.940;5.282;2022-08-03T09:51:01;38.90;75.80
27667;DHT22;15074;50.940;5.282;2022-08-03T09:53:28;38.50;75.20
27667;DHT22;15074;50.940;5.282;2022-08-03T09:55:59;38.50;75.60
27667;DHT22;15074;50.940;5.282;2022-08-03T09:58:27;38.00;73.70
27667;DHT22;15074;50.940;5.282;2022-08-03T10:01:04;38.30;74.50
27667;DHT22;15074;50.940;5.282;2022-08-03T10:03:35;38.30;74.60
27667;DHT22;15074;50.940;5.282;2022-08-03T10:06:18;38.60;74.30
27667;DHT22;15074;50.940;5.282;2022-08-03T10:08:45;39.20;73.00
27667;DHT22;15074;50.940;5.282;2022-08-03T10:11:10;40.30;70.80
27667;DHT22;15074;50.940;5.282;2022-08-03T10:13:37;39.50;70.20
27667;DHT22;15074;50.940;5.282;2022-08-03T10:16:03;39.90;70.30
27667;DHT22;15074;50.940;5.282;2022-08-03T10:18:31;40.40;68.50
27667;DHT22;15074;50.940;5.282;2022-08-03T10:21:07;40.00;69.50
27667;DHT22;15074;50.940;5.282;2022-08-03T10:23:36;40.10;68.80
27667;DHT22;15074;50.940;5.282;2022-08-03T10:26:03;39.50;69.70
27667;DHT22;15074;50.940;5.282;2022-08-03T10:28:48;39.70;69.70
27667;DHT22;15074;50.940;5.282;2022-08-03T10:31:15;39.60;69.60
27667;DHT22;15074;50.940;5.282;2022-08-03T10:33:43;39.70;69.20
27667;DHT22;15074;50.940;5.282;2022-08-03T10:36:12;40.40;69.30
27667;DHT22;15074;50.940;5.282;2022-08-03T10:38:48;40.90;67.50
27667;DHT22;15074;50.940;5.282;2022-08-03T10:41:19;41.50;66.90
27667;DHT22;15074;50.940;5.282;2022-08-03T10:43:58;41.90;65.00
27667;DHT22;15074;50.940;5.282;2022-08-03T10:46:27;41.70;65.10
27667;DHT22;15074;50.940;5.282;2022-08-03T10:48:53;39.70;66.70
27667;DHT22;15074;50.940;5.282;2022-08-03T10:51:20;39.20;69.70
27667;DHT22;15074;50.940;5.282;2022-08-03T10:53:47;39.70;68.50
27667;DHT22;15074;50.940;5.282;2022-08-03T10:59:16;40.60;65.70
27667;DHT22;15074;50.940;5.282;2022-08-03T11:04:17;40.70;66.70
27667;DHT22;15074;50.940;5.282;2022-08-03T11:06:44;40.30;68.30
27667;DHT22;15074;50.940;5.282;2022-08-03T11:11:36;39.50;68.40
27667;DHT22;15074;50.940;5.282;2022-08-03T11:14:05;38.80;68.40
27667;DHT22;15074;50.940;5.282;2022-08-03T11:16:40;39.10;68.50
27667;DHT22;15074;50.940;5.282;2022-08-03T11:19:11;39.70;68.60
27667;DHT22;15074;50.940;5.282;2022-08-03T11:27:16;41.60;65.00
27667;DHT22;15074;50.940;5.282;2022-08-03T11:35:12;41.50;65.50
27667;DHT22;15074;50.940;5.282;2022-08-03T11:43:08;38.80;69.30
27667;DHT22;15074;50.940;5.282;2022-08-03T11:45:35;39.70;68.40
27667;DHT22;15074;50.940;5.282;2022-08-03T11:48:14;40.20;66.80
27667;DHT22;15074;50.940;5.282;2022-08-03T11:50:41;40.20;67.20
27667;DHT22;15074;50.940;5.282;2022-08-03T11:53:13;40.30;66.70
27667;DHT22;15074;50.940;5.282;2022-08-03T11:55:39;40.60;65.20
27667;DHT22;15074;50.940;5.282;2022-08-03T11:58:07;40.60;65.00
27667;DHT22;15074;50.940;5.282;2022-08-03T12:00:33;41.10;64.40
27667;DHT22;15074;50.940;5.282;2022-08-03T12:03:03;41.30;63.60
27667;DHT22;15074;50.940;5.282;2022-08-03T12:05:43;40.30;65.00
27667;DHT22;15074;50.940;5.282;2022-08-03T12:08:11;40.20;66.20
27667;DHT22;15074;50.940;5.282;2022-08-03T12:10:39;40.20;66.00
27667;DHT22;15074;50.940;5.282;2022-08-03T12:13:06;40.60;65.70
27667;DHT22;15074;50.940;5.282;2022-08-03T12:15:34;41.30;64.20
27667;DHT22;15074;50.940;5.282;2022-08-03T12:18:02;41.50;64.30
27667;DHT22;15074;50.940;5.282;2022-08-03T12:20:30;40.40;64.50
27667;DHT22;15074;50.940;5.282;2022-08-03T12:23:04;40.00;65.20
27667;DHT22;15074;50.940;5.282;2022-08-03T12:25:30;40.30;65.60
27667;DHT22;15074;50.940;5.282;2022-08-03T12:28:05;40.40;64.40
27667;DHT22;15074;50.940;5.282;2022-08-03T12:30:38;39.90;65.50
27667;DHT22;15074;50.940;5.282;2022-08-03T12:33:23;39.40;66.00
27667;DHT22;15074;50.940;5.282;2022-08-03T12:36:05;39.50;65.90
27667;DHT22;15074;50.940;5.282;2022-08-03T12:38:32;39.00;65.30
27667;DHT22;15074;50.940;5.282;2022-08-03T12:41:00;39.80;66.20
27667;DHT22;15074;50.940;5.282;2022-08-03T12:43:26;40.50;64.80
27667;DHT22;15074;50.940;5.282;2022-08-03T12:46:06;40.90;63.70
27667;DHT22;15074;50.940;5.282;2022-08-03T12:48:34;40.60;64.20
27667;DHT22;15074;50.940;5.282;2022-08-03T12:51:10;40.30;64.30
27667;DHT22;15074;50.940;5.282;2022-08-03T12:53:36;40.60;63.00
27667;DHT22;15074;50.940;5.282;2022-08-03T12:56:03;40.40;63.50
27667;DHT22;15074;50.940;5.282;2022-08-03T12:58:30;40.30;63.50
27667;DHT22;15074;50.940;5.282;2022-08-03T13:00:58;39.70;63.90
27667;DHT22;15074;50.940;5.282;2022-08-03T13:03:23;38.80;66.30
27667;DHT22;15074;50.940;5.282;2022-08-03T13:05:49;39.60;65.10
27667;DHT22;15074;50.940;5.282;2022-08-03T13:08:19;39.40;65.30
27667;DHT22;15074;50.940;5.282;2022-08-03T13:10:45;40.00;64.10
27667;DHT22;15074;50.940;5.282;2022-08-03T13:13:11;40.60;63.20
27667;DHT22;15074;50.940;5.282;2022-08-03T13:15:36;40.80;62.90
27667;DHT22;15074;50.940;5.282;2022-08-03T13:18:02;41.30;62.40
27667;DHT22;15074;50.940;5.282;2022-08-03T13:20:28;40.70;62.70
27667;DHT22;15074;50.940;5.282;2022-08-03T13:22:53;40.60;63.10
27667;DHT22;15074;50.940;5.282;2022-08-03T13:25:20;40.80;62.50
27667;DHT22;15074;50.940;5.282;2022-08-03T13:27:46;40.60;62.90
27667;DHT22;15074;50.940;5.282;2022-08-03T13:30:13;41.30;62.30
27667;DHT22;15074;50.940;5.282;2022-08-03T13:32:39;41.10;61.70
27667;DHT22;15074;50.940;5.282;2022-08-03T13:35:06;41.30;60.40
27667;DHT22;15074;50.940;5.282;2022-08-03T13:37:32;41.70;60.70
27667;DHT22;15074;50.940;5.282;2022-08-03T13:39:59;41.60;60.70
27667;DHT22;15074;50.940;5.282;2022-08-03T13:42:24;41.60;60.40
27667;DHT22;15074;50.940;5.282;2022-08-03T13:44:50;41.60;60.20
27667;DHT22;15074;50.940;5.282;2022-08-03T13:47:16;40.90;61.00
27667;DHT22;15074;50.940;5.282;2022-08-03T13:49:41;40.70;62.10
27667;DHT22;15074;50.940;5.282;2022-08-03T13:52:07;40.70;61.50
27667;DHT22;15074;50.940;5.282;2022-08-03T13:54:32;41.20;60.00
27667;DHT22;15074;50.940;5.282;2022-08-03T13:56:58;39.10;61.50
27667;DHT22;15074;50.940;5.282;2022-08-03T13:59:25;37.30;64.90
27667;DHT22;15074;50.940;5.282;2022-08-03T14:01:52;36.00;68.10
27667;DHT22;15074;50.940;5.282;2022-08-03T14:04:19;36.10;67.00
27667;DHT22;15074;50.940;5.282;2022-08-03T14:06:45;36.20;68.80
27667;DHT22;15074;50.940;5.282;2022-08-03T14:09:11;36.20;67.80
27667;DHT22;15074;50.940;5.282;2022-08-03T14:11:41;36.50;68.00
27667;DHT22;15074;50.940;5.282;2022-08-03T14:14:06;37.20;67.50
27667;DHT22;15074;50.940;5.282;2022-08-03T14:16:32;37.80;65.60
27667;DHT22;15074;50.940;5.282;2022-08-03T14:18:57;38.40;64.50
27667;DHT22;15074;50.940;5.282;2022-08-03T14:21:23;37.90;64.10
27667;DHT22;15074;50.940;5.282;2022-08-03T14:23:49;37.00;65.40
27667;DHT22;15074;50.940;5.282;2022-08-03T14:26:14;36.80;65.20
27667;DHT22;15074;50.940;5.282;2022-08-03T14:28:42;36.10;66.50
27667;DHT22;15074;50.940;5.282;2022-08-03T14:31:08;35.90;68.30
27667;DHT22;15074;50.940;5.282;2022-08-03T14:33:34;36.50;67.00
27667;DHT22;15074;50.940;5.282;2022-08-03T14:35:59;36.50;67.20
27667;DHT22;15074;50.940;5.282;2022-08-03T14:38:25;36.50;66.60
27667;DHT22;15074;50.940;5.282;2022-08-03T14:40:51;37.30;65.50
27667;DHT22;15074;50.940;5.282;2022-08-03T14:43:17;38.20;64.50
27667;DHT22;15074;50.940;5.282;2022-08-03T14:45:44;38.60;63.50
27667;DHT22;15074;50.940;5.282;2022-08-03T14:48:10;38.70;63.50
27667;DHT22;15074;50.940;5.282;2022-08-03T14:50:36;37.50;63.50
27667;DHT22;15074;50.940;5.282;2022-08-03T14:53:02;36.50;65.10
27667;DHT22;15074;50.940;5.282;2022-08-03T14:55:28;35.90;66.40
27667;DHT22;15074;50.940;5.282;2022-08-03T14:57:53;35.70;67.80
27667;DHT22;15074;50.940;5.282;2022-08-03T15:00:19;36.10;67.00
27667;DHT22;15074;50.940;5.282;2022-08-03T15:02:44;35.70;67.90
27667;DHT22;15074;50.940;5.282;2022-08-03T15:05:10;35.30;67.90
27667;DHT22;15074;50.940;5.282;2022-08-03T15:07:37;35.30;67.50
27667;DHT22;15074;50.940;5.282;2022-08-03T15:10:03;34.80;68.70
27667;DHT22;15074;50.940;5.282;2022-08-03T15:12:29;34.20;69.60
27667;DHT22;15074;50.940;5.282;2022-08-03T15:14:54;33.60;70.90
27667;DHT22;15074;50.940;5.282;2022-08-03T15:17:20;33.80;71.50
27667;DHT22;15074;50.940;5.282;2022-08-03T15:19:46;33.70;71.20
27667;DHT22;15074;50.940;5.282;2022-08-03T15:22:12;33.40;71.60
27667;DHT22;15074;50.940;5.282;2022-08-03T15:24:40;33.40;72.00
27667;DHT22;15074;50.940;5.282;2022-08-03T15:27:06;33.50;72.00
27667;DHT22;15074;50.940;5.282;2022-08-03T15:29:31;33.70;71.60
27667;DHT22;15074;50.940;5.282;2022-08-03T15:31:57;33.70;70.80
27667;DHT22;15074;50.940;5.282;2022-08-03T15:34:23;33.80;70.40
27667;DHT22;15074;50.940;5.282;2022-08-03T15:36:48;33.90;70.60
27667;DHT22;15074;50.940;5.282;2022-08-03T15:39:14;34.10;70.80
27667;DHT22;15074;50.940;5.282;2022-08-03T15:41:40;34.50;70.50
27667;DHT22;15074;50.940;5.282;2022-08-03T15:44:05;34.60;70.20
27667;DHT22;15074;50.940;5.282;2022-08-03T15:46:31;34.60;69.60
27667;DHT22;15074;50.940;5.282;2022-08-03T15:48:56;34.60;70.10
27667;DHT22;15074;50.940;5.282;2022-08-03T15:51:22;34.60;70.50
27667;DHT22;15074;50.940;5.282;2022-08-03T15:53:48;34.50;70.70
27667;DHT22;15074;50.940;5.282;2022-08-03T15:56:13;34.50;69.80
27667;DHT22;15074;50.940;5.282;2022-08-03T15:58:39;34.40;71.20
27667;DHT22;15074;50.940;5.282;2022-08-03T16:01:06;34.50;71.00
27667;DHT22;15074;50.940;5.282;2022-08-03T16:03:32;34.60;70.00
27667;DHT22;15074;50.940;5.282;2022-08-03T16:06:02;34.60;70.00
27667;DHT22;15074;50.940;5.282;2022-08-03T16:08:28;34.50;69.90
27667;DHT22;15074;50.940;5.282;2022-08-03T16:10:53;34.30;69.20
27667;DHT22;15074;50.940;5.282;2022-08-03T16:13:19;33.80;70.40